sensor_id;sensor_type;location;lat;lon;timestamp;P1;durP1;ratioP1;P2;durP2;ratioP2
31182;SDS011;17813;0.000;0.000;2023-04-01T00:01:46;1.57;;;1.00;;
31182;SDS011;17813;0.000;0.000;2023-04-01T00:04:13;2.93;;;1.40;;
31182;SDS011;17813;0.000;0.000;2023-04-01T00:06:41;2.17;;;1.07;;
31182;SDS011;17813;0.000;0.000;2023-04-01T00:09:08;1.97;;;1.30;;
31182;SDS011;17813;0.000;0.000;2023-04-01T00:11:34;2.37;;;1.20;;
31182;SDS011;17813;0.000;0.000;2023-04-01T00:14:01;2.23;;;1.20;;
31182;SDS011;17813;0.000;0.000;2023-04-01T00:16:31;2.37;;;1.20;;
31182;SDS011;17813;0.000;0.000;2023-04-01T00:18:59;2.40;;;1.10;;
31182;SDS011;17813;0.000;0.000;2023-04-01T00:21:27;3.77;;;1.40;;
31182;SDS011;17813;0.000;0.000;2023-04-01T00:23:54;1.60;;;1.03;;
31182;SDS011;17813;0.000;0.000;2023-04-01T00:26:21;2.73;;;1.30;;
31182;SDS011;17813;0.000;0.000;2023-04-01T00:28:50;2.17;;;1.23;;
31182;SDS011;17813;0.000;0.000;2023-04-01T00:31:17;2.20;;;1.20;;
31182;SDS011;17813;0.000;0.000;2023-04-01T00:33:45;2.33;;;1.10;;
31182;SDS011;17813;0.000;0.000;2023-04-01T00:36:13;2.60;;;1.00;;
31182;SDS011;17813;0.000;0.000;2023-04-01T00:38:44;2.87;;;1.37;;
31182;SDS011;17813;0.000;0.000;2023-04-01T00:41:12;3.33;;;1.30;;
31182;SDS011;17813;0.000;0.000;2023-04-01T00:43:42;1.33;;;1.00;;
31182;SDS011;17813;0.000;0.000;2023-04-01T00:46:11;2.67;;;1.10;;
31182;SDS011;17813;0.000;0.000;2023-04-01T00:48:39;2.00;;;1.10;;
31182;SDS011;17813;0.000;0.000;2023-04-01T00:51:16;2.73;;;1.30;;
31182;SDS011;17813;0.000;0.000;2023-04-01T00:53:53;4.30;;;1.30;;
31182;SDS011;17813;0.000;0.000;2023-04-01T00:59:30;1.83;;;0.97;;
31182;SDS011;17813;0.000;0.000;2023-04-01T01:02:02;2.50;;;1.10;;
31182;SDS011;17813;0.000;0.000;2023-04-01T01:04:32;3.63;;;1.27;;
31182;SDS011;17813;0.000;0.000;2023-04-01T01:10:01;3.47;;;1.20;;
31182;SDS011;17813;0.000;0.000;2023-04-01T01:26:59;2.67;;;1.17;;
31182;SDS011;17813;0.000;0.000;2023-04-01T01:29:55;3.27;;;1.40;;
31182;SDS011;17813;0.000;0.000;2023-04-01T01:32:39;2.73;;;1.20;;
31182;SDS011;17813;0.000;0.000;2023-04-01T01:37:38;2.23;;;0.90;;
31182;SDS011;17813;0.000;0.000;2023-04-01T01:40:08;2.03;;;1.10;;
31182;SDS011;17813;0.000;0.000;2023-04-01T01:42:40;1.60;;;1.10;;
31182;SDS011;17813;0.000;0.000;2023-04-01T01:45:20;3.13;;;1.50;;
31182;SDS011;17813;0.000;0.000;2023-04-01T01:47:50;4.23;;;1.20;;
31182;SDS011;17813;0.000;0.000;2023-04-01T01:50:18;2.80;;;1.30;;
31182;SDS011;17813;0.000;0.000;2023-04-01T01:52:47;4.13;;;1.37;;
31182;SDS011;17813;0.000;0.000;2023-04-01T01:55:29;4.33;;;1.30;;
31182;SDS011;17813;0.000;0.000;2023-04-01T01:58:09;4.30;;;1.40;;
31182;SDS011;17813;0.000;0.000;2023-04-01T02:00:37;3.53;;;1.23;;
31182;SDS011;17813;0.000;0.000;2023-04-01T02:03:07;2.80;;;1.47;;
31182;SDS011;17813;0.000;0.000;2023-04-01T02:05:36;2.77;;;1.20;;
31182;SDS011;17813;0.000;0.000;2023-04-01T02:08:06;4.07;;;1.23;;
31182;SDS011;17813;0.000;0.000;2023-04-01T02:10:41;2.80;;;1.20;;
31182;SDS011;17813;0.000;0.000;2023-04-01T02:13:21;3.30;;;1.63;;
31182;SDS011;17813;0.000;0.000;2023-04-01T02:15:55;2.47;;;1.20;;
31182;SDS011;17813;0.000;0.000;2023-04-01T02:18:26;2.57;;;1.20;;
31182;SDS011;17813;0.000;0.000;2023-04-01T02:20:56;4.77;;;1.40;;
31182;SDS011;17813;0.000;0.000;2023-04-01T02:23:25;2.43;;;1.50;;
31182;SDS011;17813;0.000;0.000;2023-04-01T02:25:53;2.93;;;1.20;;
31182;SDS011;17813;0.000;0.000;2023-04-01T02:28:24;2.07;;;1.00;;
31182;SDS011;17813;0.000;0.000;2023-04-01T02:30:53;2.87;;;1.33;;
31182;SDS011;17813;0.000;0.000;2023-04-01T02:33:21;3.50;;;1.17;;
31182;SDS011;17813;0.000;0.000;2023-04-01T02:35:48;3.37;;;1.30;;
31182;SDS011;17813;0.000;0.000;2023-04-01T02:38:15;2.93;;;1.33;;
31182;SDS011;17813;0.000;0.000;2023-04-01T02:40:47;2.60;;;1.17;;
31182;SDS011;17813;0.000;0.000;2023-04-01T02:43:22;6.03;;;1.40;;
31182;SDS011;17813;0.000;0.000;2023-04-01T02:45:49;4.33;;;1.13;;
31182;SDS011;17813;0.000;0.000;2023-04-01T02:48:19;2.00;;;1.20;;
31182;SDS011;17813;0.000;0.000;2023-04-01T02:50:47;4.20;;;1.20;;
31182;SDS011;17813;0.000;0.000;2023-04-01T02:53:14;2.43;;;1.10;;
31182;SDS011;17813;0.000;0.000;2023-04-01T02:55:41;3.20;;;1.10;;
31182;SDS011;17813;0.000;0.000;2023-04-01T02:58:08;3.27;;;1.10;;
31182;SDS011;17813;0.000;0.000;2023-04-01T03:00:35;1.37;;;0.90;;
31182;SDS011;17813;0.000;0.000;2023-04-01T03:03:03;1.17;;;0.93;;
31182;SDS011;17813;0.000;0.000;2023-04-01T03:05:30;2.03;;;0.93;;
31182;SDS011;17813;0.000;0.000;2023-04-01T03:07:57;2.63;;;1.17;;
31182;SDS011;17813;0.000;0.000;2023-04-01T03:10:24;2.87;;;1.00;;
31182;SDS011;17813;0.000;0.000;2023-04-01T03:12:51;1.73;;;1.00;;
31182;SDS011;17813;0.000;0.000;2023-04-01T03:15:18;2.87;;;0.90;;
31182;SDS011;17813;0.000;0.000;2023-04-01T03:17:45;3.10;;;1.10;;
31182;SDS011;17813;0.000;0.000;2023-04-01T03:20:12;1.17;;;0.70;;
31182;SDS011;17813;0.000;0.000;2023-04-01T03:22:41;1.60;;;0.90;;
31182;SDS011;17813;0.000;0.000;2023-04-01T03:25:08;2.17;;;0.80;;
31182;SDS011;17813;0.000;0.000;2023-04-01T03:27:35;1.13;;;0.80;;
31182;SDS011;17813;0.000;0.000;2023-04-01T03:30:03;2.37;;;1.00;;
31182;SDS011;17813;0.000;0.000;2023-04-01T03:32:32;1.63;;;1.00;;
31182;SDS011;17813;0.000;0.000;2023-04-01T03:34:58;1.60;;;0.90;;
31182;SDS011;17813;0.000;0.000;2023-04-01T03:37:26;1.20;;;0.70;;
31182;SDS011;17813;0.000;0.000;2023-04-01T03:39:53;2.43;;;1.00;;
31182;SDS011;17813;0.000;0.000;2023-04-01T03:42:19;3.27;;;1.03;;
31182;SDS011;17813;0.000;0.000;2023-04-01T03:44:50;1.73;;;1.00;;
31182;SDS011;17813;0.000;0.000;2023-04-01T03:47:17;1.00;;;0.80;;
31182;SDS011;17813;0.000;0.000;2023-04-01T03:49:43;1.57;;;0.70;;
31182;SDS011;17813;0.000;0.000;2023-04-01T03:52:11;1.87;;;0.80;;
31182;SDS011;17813;0.000;0.000;2023-04-01T03:54:38;1.97;;;1.00;;
31182;SDS011;17813;0.000;0.000;2023-04-01T03:57:05;1.60;;;0.97;;
31182;SDS011;17813;0.000;0.000;2023-04-01T03:59:32;1.70;;;0.87;;
31182;SDS011;17813;0.000;0.000;2023-04-01T04:02:00;1.20;;;0.80;;
31182;SDS011;17813;0.000;0.000;2023-04-01T04:04:27;1.53;;;0.87;;
31182;SDS011;17813;0.000;0.000;2023-04-01T04:06:56;1.83;;;0.97;;
31182;SDS011;17813;0.000;0.000;2023-04-01T04:09:23;2.10;;;1.00;;
31182;SDS011;17813;0.000;0.000;2023-04-01T04:11:50;1.80;;;0.90;;
31182;SDS011;17813;0.000;0.000;2023-04-01T04:14:20;1.10;;;0.80;;
31182;SDS011;17813;0.000;0.000;2023-04-01T04:16:48;1.60;;;0.83;;
31182;SDS011;17813;0.000;0.000;2023-04-01T04:19:18;2.03;;;0.97;;
31182;SDS011;17813;0.000;0.000;2023-04-01T04:21:45;2.53;;;0.97;;
31182;SDS011;17813;0.000;0.000;2023-04-01T04:24:12;1.80;;;0.90;;
31182;SDS011;17813;0.000;0.000;2023-04-01T04:26:39;1.73;;;1.10;;
31182;SDS011;17813;0.000;0.000;2023-04-01T04:29:06;1.70;;;1.10;;
31182;SDS011;17813;0.000;0.000;2023-04-01T04:31:33;2.30;;;0.83;;
31182;SDS011;17813;0.000;0.000;2023-04-01T04:34:00;2.03;;;1.00;;
31182;SDS011;17813;0.000;0.000;2023-04-01T04:36:27;1.87;;;0.90;;
31182;SDS011;17813;0.000;0.000;2023-04-01T04:38:54;1.73;;;1.00;;
31182;SDS011;17813;0.000;0.000;2023-04-01T04:41:21;2.07;;;0.97;;
31182;SDS011;17813;0.000;0.000;2023-04-01T04:43:49;1.50;;;0.70;;
31182;SDS011;17813;0.000;0.000;2023-04-01T04:46:18;2.10;;;1.07;;
31182;SDS011;17813;0.000;0.000;2023-04-01T04:48:45;1.43;;;0.90;;
31182;SDS011;17813;0.000;0.000;2023-04-01T04:51:14;2.10;;;1.00;;
31182;SDS011;17813;0.000;0.000;2023-04-01T04:53:45;1.43;;;0.80;;
31182;SDS011;17813;0.000;0.000;2023-04-01T04:56:12;3.77;;;1.00;;
31182;SDS011;17813;0.000;0.000;2023-04-01T04:58:43;1.83;;;1.00;;
31182;SDS011;17813;0.000;0.000;2023-04-01T05:01:10;4.07;;;1.20;;
31182;SDS011;17813;0.000;0.000;2023-04-01T05:03:39;2.50;;;1.10;;
31182;SDS011;17813;0.000;0.000;2023-04-01T05:06:07;2.77;;;0.90;;
31182;SDS011;17813;0.000;0.000;2023-04-01T05:08:35;3.50;;;1.30;;
31182;SDS011;17813;0.000;0.000;2023-04-01T05:11:06;1.93;;;1.10;;
31182;SDS011;17813;0.000;0.000;2023-04-01T05:13:36;2.60;;;1.00;;
31182;SDS011;17813;0.000;0.000;2023-04-01T05:16:02;2.63;;;1.10;;
31182;SDS011;17813;0.000;0.000;2023-04-01T05:18:32;2.30;;;1.10;;
31182;SDS011;17813;0.000;0.000;2023-04-01T05:21:00;2.70;;;1.40;;
31182;SDS011;17813;0.000;0.000;2023-04-01T05:23:27;3.23;;;1.30;;
31182;SDS011;17813;0.000;0.000;2023-04-01T05:25:53;2.93;;;1.27;;
31182;SDS011;17813;0.000;0.000;2023-04-01T05:28:22;4.27;;;1.20;;
31182;SDS011;17813;0.000;0.000;2023-04-01T05:30:49;3.20;;;1.00;;
31182;SDS011;17813;0.000;0.000;2023-04-01T05:33:16;1.43;;;0.80;;
31182;SDS011;17813;0.000;0.000;2023-04-01T05:35:45;2.27;;;1.10;;
31182;SDS011;17813;0.000;0.000;2023-04-01T05:38:12;2.43;;;1.07;;
31182;SDS011;17813;0.000;0.000;2023-04-01T05:40:39;2.77;;;1.20;;
31182;SDS011;17813;0.000;0.000;2023-04-01T05:43:06;2.97;;;1.20;;
31182;SDS011;17813;0.000;0.000;2023-04-01T05:45:33;1.90;;;1.00;;
31182;SDS011;17813;0.000;0.000;2023-04-01T05:48:00;1.90;;;1.00;;
31182;SDS011;17813;0.000;0.000;2023-04-01T05:50:28;1.80;;;1.03;;
31182;SDS011;17813;0.000;0.000;2023-04-01T05:52:55;2.17;;;1.30;;
31182;SDS011;17813;0.000;0.000;2023-04-01T05:55:22;1.83;;;0.90;;
31182;SDS011;17813;0.000;0.000;2023-04-01T05:57:49;1.23;;;1.00;;
31182;SDS011;17813;0.000;0.000;2023-04-01T06:00:16;2.87;;;1.17;;
31182;SDS011;17813;0.000;0.000;2023-04-01T06:02:45;1.17;;;0.77;;
31182;SDS011;17813;0.000;0.000;2023-04-01T06:05:14;2.07;;;0.90;;
31182;SDS011;17813;0.000;0.000;2023-04-01T06:07:41;2.47;;;1.00;;
31182;SDS011;17813;0.000;0.000;2023-04-01T06:10:18;0.77;;;0.70;;
31182;SDS011;17813;0.000;0.000;2023-04-01T06:16:15;1.37;;;0.80;;
31182;SDS011;17813;0.000;0.000;2023-04-01T06:22:05;2.03;;;1.10;;
31182;SDS011;17813;0.000;0.000;2023-04-01T06:35:25;1.67;;;0.93;;
31182;SDS011;17813;0.000;0.000;2023-04-01T06:44:00;3.00;;;1.17;;
31182;SDS011;17813;0.000;0.000;2023-04-01T06:56:21;2.53;;;1.10;;
31182;SDS011;17813;0.000;0.000;2023-04-01T06:58:29;2.37;;;1.10;;
31182;SDS011;17813;0.000;0.000;2023-04-01T07:01:03;2.97;;;1.00;;
31182;SDS011;17813;0.000;0.000;2023-04-01T07:03:40;3.00;;;1.13;;
31182;SDS011;17813;0.000;0.000;2023-04-01T07:09:05;2.83;;;1.10;;
31182;SDS011;17813;0.000;0.000;2023-04-01T07:11:40;2.87;;;1.10;;
31182;SDS011;17813;0.000;0.000;2023-04-01T07:16:49;2.67;;;1.20;;
31182;SDS011;17813;0.000;0.000;2023-04-01T07:19:36;1.57;;;0.90;;
31182;SDS011;17813;0.000;0.000;2023-04-01T07:22:38;2.13;;;1.10;;
31182;SDS011;17813;0.000;0.000;2023-04-01T07:25:44;2.27;;;1.10;;
31182;SDS011;17813;0.000;0.000;2023-04-01T07:28:16;2.07;;;1.10;;
31182;SDS011;17813;0.000;0.000;2023-04-01T07:30:53;2.93;;;0.87;;
31182;SDS011;17813;0.000;0.000;2023-04-01T07:36:22;2.57;;;1.00;;
31182;SDS011;17813;0.000;0.000;2023-04-01T07:41:43;2.27;;;1.20;;
31182;SDS011;17813;0.000;0.000;2023-04-01T07:52:49;1.97;;;1.00;;
31182;SDS011;17813;0.000;0.000;2023-04-01T08:01:39;1.37;;;0.87;;
31182;SDS011;17813;0.000;0.000;2023-04-01T08:04:18;2.50;;;1.03;;
31182;SDS011;17813;0.000;0.000;2023-04-01T08:23:45;1.47;;;0.70;;
31182;SDS011;17813;0.000;0.000;2023-04-01T08:26:22;1.63;;;0.83;;
31182;SDS011;17813;0.000;0.000;2023-04-01T08:29:33;0.87;;;0.63;;
31182;SDS011;17813;0.000;0.000;2023-04-01T08:32:14;1.17;;;0.60;;
31182;SDS011;17813;0.000;0.000;2023-04-01T08:34:46;0.70;;;0.40;;
31182;SDS011;17813;0.000;0.000;2023-04-01T08:37:22;0.67;;;0.40;;
31182;SDS011;17813;0.000;0.000;2023-04-01T08:40:02;0.87;;;0.67;;
31182;SDS011;17813;0.000;0.000;2023-04-01T08:42:46;0.93;;;0.53;;
31182;SDS011;17813;0.000;0.000;2023-04-01T08:56:23;1.07;;;0.50;;
31182;SDS011;17813;0.000;0.000;2023-04-01T09:05:03;0.40;;;0.40;;
31182;SDS011;17813;0.000;0.000;2023-04-01T09:10:29;0.87;;;0.47;;
31182;SDS011;17813;0.000;0.000;2023-04-01T09:19:14;0.50;;;0.40;;
31182;SDS011;17813;0.000;0.000;2023-04-01T09:21:49;1.57;;;0.60;;
31182;SDS011;17813;0.000;0.000;2023-04-01T09:27:52;0.73;;;0.47;;
31182;SDS011;17813;0.000;0.000;2023-04-01T09:36:41;0.53;;;0.50;;
31182;SDS011;17813;0.000;0.000;2023-04-01T09:39:31;0.50;;;0.30;;
31182;SDS011;17813;0.000;0.000;2023-04-01T09:45:01;0.47;;;0.40;;
31182;SDS011;17813;0.000;0.000;2023-04-01T09:56:34;0.50;;;0.43;;
31182;SDS011;17813;0.000;0.000;2023-04-01T10:25:15;0.93;;;0.60;;
31182;SDS011;17813;0.000;0.000;2023-04-01T10:31:18;0.83;;;0.40;;
31182;SDS011;17813;0.000;0.000;2023-04-01T10:40:22;0.77;;;0.37;;
31182;SDS011;17813;0.000;0.000;2023-04-01T10:55:35;0.87;;;0.50;;
31182;SDS011;17813;0.000;0.000;2023-04-01T11:03:19;0.37;;;0.37;;
31182;SDS011;17813;0.000;0.000;2023-04-01T11:14:52;0.33;;;0.30;;
31182;SDS011;17813;0.000;0.000;2023-04-01T11:17:36;1.40;;;0.27;;
31182;SDS011;17813;0.000;0.000;2023-04-01T11:20:21;0.47;;;0.40;;
31182;SDS011;17813;0.000;0.000;2023-04-01T11:23:08;0.73;;;0.40;;
31182;SDS011;17813;0.000;0.000;2023-04-01T11:26:02;0.30;;;0.30;;
31182;SDS011;17813;0.000;0.000;2023-04-01T11:29:02;0.40;;;0.40;;
31182;SDS011;17813;0.000;0.000;2023-04-01T11:31:47;0.70;;;0.53;;
31182;SDS011;17813;0.000;0.000;2023-04-01T11:37:41;0.53;;;0.40;;
31182;SDS011;17813;0.000;0.000;2023-04-01T11:40:20;0.50;;;0.50;;
31182;SDS011;17813;0.000;0.000;2023-04-01T11:43:05;0.93;;;0.60;;
31182;SDS011;17813;0.000;0.000;2023-04-01T11:56:54;1.70;;;0.70;;
31182;SDS011;17813;0.000;0.000;2023-04-01T12:07:55;0.33;;;0.30;;
31182;SDS011;17813;0.000;0.000;2023-04-01T12:10:56;0.50;;;0.40;;
31182;SDS011;17813;0.000;0.000;2023-04-01T12:17:00;0.70;;;0.57;;
31182;SDS011;17813;0.000;0.000;2023-04-01T12:25:16;0.53;;;0.50;;
31182;SDS011;17813;0.000;0.000;2023-04-01T12:34:13;1.17;;;0.67;;
31182;SDS011;17813;0.000;0.000;2023-04-01T12:37:08;0.90;;;0.40;;
31182;SDS011;17813;0.000;0.000;2023-04-01T13:02:02;0.57;;;0.50;;
31182;SDS011;17813;0.000;0.000;2023-04-01T13:15:51;0.40;;;0.33;;
31182;SDS011;17813;0.000;0.000;2023-04-01T13:29:59;0.40;;;0.30;;
31182;SDS011;17813;0.000;0.000;2023-04-01T13:32:46;0.57;;;0.50;;
31182;SDS011;17813;0.000;0.000;2023-04-01T13:35:23;0.53;;;0.50;;
31182;SDS011;17813;0.000;0.000;2023-04-01T13:43:37;0.87;;;0.60;;
31182;SDS011;17813;0.000;0.000;2023-04-01T13:46:32;0.20;;;0.20;;
31182;SDS011;17813;0.000;0.000;2023-04-01T13:52:14;0.43;;;0.40;;
31182;SDS011;17813;0.000;0.000;2023-04-01T13:55:09;1.23;;;0.27;;
31182;SDS011;17813;0.000;0.000;2023-04-01T14:01:00;0.40;;;0.30;;
31182;SDS011;17813;0.000;0.000;2023-04-01T14:03:38;0.57;;;0.30;;
31182;SDS011;17813;0.000;0.000;2023-04-01T14:14:33;0.53;;;0.30;;
31182;SDS011;17813;0.000;0.000;2023-04-01T14:25:41;0.97;;;0.30;;
31182;SDS011;17813;0.000;0.000;2023-04-01T14:28:40;0.63;;;0.27;;
31182;SDS011;17813;0.000;0.000;2023-04-01T14:31:47;0.40;;;0.40;;
31182;SDS011;17813;0.000;0.000;2023-04-01T14:51:54;0.30;;;0.30;;
31182;SDS011;17813;0.000;0.000;2023-04-01T14:54:30;0.80;;;0.40;;
31182;SDS011;17813;0.000;0.000;2023-04-01T14:59:41;1.00;;;0.70;;
31182;SDS011;17813;0.000;0.000;2023-04-01T15:16:20;0.70;;;0.70;;
31182;SDS011;17813;0.000;0.000;2023-04-01T15:19:23;1.80;;;0.70;;
31182;SDS011;17813;0.000;0.000;2023-04-01T15:22:22;0.43;;;0.43;;
31182;SDS011;17813;0.000;0.000;2023-04-01T15:25:33;0.67;;;0.60;;
31182;SDS011;17813;0.000;0.000;2023-04-01T15:39:10;1.73;;;1.07;;
31182;SDS011;17813;0.000;0.000;2023-04-01T15:42:07;0.70;;;0.70;;
31182;SDS011;17813;0.000;0.000;2023-04-01T16:04:30;0.60;;;0.60;;
31182;SDS011;17813;0.000;0.000;2023-04-01T16:10:24;1.33;;;0.63;;
31182;SDS011;17813;0.000;0.000;2023-04-01T16:18:34;0.70;;;0.60;;
31182;SDS011;17813;0.000;0.000;2023-04-01T16:21:37;1.63;;;0.50;;
31182;SDS011;17813;0.000;0.000;2023-04-01T16:27:02;0.77;;;0.77;;
31182;SDS011;17813;0.000;0.000;2023-04-01T16:29:45;1.33;;;0.93;;
31182;SDS011;17813;0.000;0.000;2023-04-01T16:54:47;0.80;;;0.53;;
31182;SDS011;17813;0.000;0.000;2023-04-01T17:02:49;0.70;;;0.70;;
31182;SDS011;17813;0.000;0.000;2023-04-01T17:05:41;0.50;;;0.50;;
31182;SDS011;17813;0.000;0.000;2023-04-01T17:08:36;0.60;;;0.60;;
31182;SDS011;17813;0.000;0.000;2023-04-01T17:22:21;1.10;;;1.00;;
31182;SDS011;17813;0.000;0.000;2023-04-01T17:25:02;1.17;;;1.07;;
31182;SDS011;17813;0.000;0.000;2023-04-01T17:28:47;1.03;;;1.03;;
31182;SDS011;17813;0.000;0.000;2023-04-01T17:31:01;1.63;;;1.00;;
31182;SDS011;17813;0.000;0.000;2023-04-01T17:36:33;0.83;;;0.83;;
31182;SDS011;17813;0.000;0.000;2023-04-01T17:42:30;0.90;;;0.90;;
31182;SDS011;17813;0.000;0.000;2023-04-01T17:45:18;1.10;;;1.00;;
31182;SDS011;17813;0.000;0.000;2023-04-01T17:53:31;1.70;;;1.60;;
31182;SDS011;17813;0.000;0.000;2023-04-01T17:59:04;1.47;;;1.37;;
31182;SDS011;17813;0.000;0.000;2023-04-01T18:01:52;1.50;;;1.40;;
31182;SDS011;17813;0.000;0.000;2023-04-01T18:04:25;2.33;;;1.70;;
31182;SDS011;17813;0.000;0.000;2023-04-01T18:09:52;3.20;;;1.83;;
31182;SDS011;17813;0.000;0.000;2023-04-01T18:21:27;3.03;;;2.00;;
31182;SDS011;17813;0.000;0.000;2023-04-01T18:24:44;3.23;;;2.10;;
31182;SDS011;17813;0.000;0.000;2023-04-01T18:27:32;1.70;;;1.60;;
31182;SDS011;17813;0.000;0.000;2023-04-01T18:32:49;1.60;;;1.50;;
31182;SDS011;17813;0.000;0.000;2023-04-01T18:38:47;1.47;;;1.27;;
31182;SDS011;17813;0.000;0.000;2023-04-01T18:41:21;1.20;;;1.10;;
31182;SDS011;17813;0.000;0.000;2023-04-01T18:47:05;1.40;;;1.30;;
31182;SDS011;17813;0.000;0.000;2023-04-01T18:49:55;3.20;;;2.67;;
31182;SDS011;17813;0.000;0.000;2023-04-01T18:52:34;4.60;;;4.20;;
31182;SDS011;17813;0.000;0.000;2023-04-01T18:57:53;4.43;;;3.50;;
31182;SDS011;17813;0.000;0.000;2023-04-01T19:00:33;4.60;;;4.20;;
31182;SDS011;17813;0.000;0.000;2023-04-01T19:03:15;5.87;;;4.80;;
31182;SDS011;17813;0.000;0.000;2023-04-01T19:06:15;6.00;;;5.30;;
31182;SDS011;17813;0.000;0.000;2023-04-01T19:08:52;6.77;;;4.97;;
31182;SDS011;17813;0.000;0.000;2023-04-01T19:14:24;6.43;;;5.27;;
31182;SDS011;17813;0.000;0.000;2023-04-01T19:25:56;5.33;;;3.33;;
31182;SDS011;17813;0.000;0.000;2023-04-01T19:31:03;3.57;;;3.20;;
31182;SDS011;17813;0.000;0.000;2023-04-01T19:44:30;4.47;;;3.87;;
31182;SDS011;17813;0.000;0.000;2023-04-01T19:53:39;3.50;;;3.20;;
31182;SDS011;17813;0.000;0.000;2023-04-01T19:59:02;3.53;;;3.23;;
31182;SDS011;17813;0.000;0.000;2023-04-01T20:04:26;4.23;;;3.83;;
31182;SDS011;17813;0.000;0.000;2023-04-01T20:15:23;4.47;;;4.07;;
31182;SDS011;17813;0.000;0.000;2023-04-01T20:18:15;4.57;;;4.13;;
31182;SDS011;17813;0.000;0.000;2023-04-01T20:21:41;4.30;;;3.90;;
31182;SDS011;17813;0.000;0.000;2023-04-01T20:24:03;4.10;;;3.70;;
31182;SDS011;17813;0.000;0.000;2023-04-01T20:26:50;3.57;;;3.27;;
31182;SDS011;17813;0.000;0.000;2023-04-01T20:32:17;3.60;;;3.30;;
31182;SDS011;17813;0.000;0.000;2023-04-01T20:40:52;4.00;;;3.27;;
31182;SDS011;17813;0.000;0.000;2023-04-01T20:46:20;3.53;;;2.97;;
31182;SDS011;17813;0.000;0.000;2023-04-01T20:49:15;3.10;;;2.80;;
31182;SDS011;17813;0.000;0.000;2023-04-01T20:52:07;3.07;;;2.80;;
31182;SDS011;17813;0.000;0.000;2023-04-01T21:00:40;2.80;;;2.60;;
31182;SDS011;17813;0.000;0.000;2023-04-01T21:10:20;3.03;;;2.70;;
31182;SDS011;17813;0.000;0.000;2023-04-01T21:27:20;2.97;;;2.27;;
31182;SDS011;17813;0.000;0.000;2023-04-01T21:32:56;2.30;;;2.10;;
31182;SDS011;17813;0.000;0.000;2023-04-01T21:38:19;3.10;;;2.70;;
31182;SDS011;17813;0.000;0.000;2023-04-01T21:41:02;3.10;;;2.77;;
31182;SDS011;17813;0.000;0.000;2023-04-01T21:50:11;4.90;;;3.43;;
31182;SDS011;17813;0.000;0.000;2023-04-01T22:07:29;3.33;;;2.30;;
31182;SDS011;17813;0.000;0.000;2023-04-01T22:13:03;2.80;;;2.60;;
31182;SDS011;17813;0.000;0.000;2023-04-01T22:19:36;2.50;;;2.30;;
31182;SDS011;17813;0.000;0.000;2023-04-01T22:24:54;2.60;;;2.40;;
31182;SDS011;17813;0.000;0.000;2023-04-01T22:27:45;2.53;;;2.30;;
31182;SDS011;17813;0.000;0.000;2023-04-01T22:30:24;2.10;;;2.00;;
31182;SDS011;17813;0.000;0.000;2023-04-01T22:33:14;2.73;;;2.53;;
31182;SDS011;17813;0.000;0.000;2023-04-01T22:38:52;2.10;;;1.97;;
31182;SDS011;17813;0.000;0.000;2023-04-01T22:44:31;2.27;;;2.07;;
31182;SDS011;17813;0.000;0.000;2023-04-01T22:47:17;2.20;;;2.10;;
31182;SDS011;17813;0.000;0.000;2023-04-01T22:50:32;2.17;;;1.70;;
31182;SDS011;17813;0.000;0.000;2023-04-01T22:52:42;2.80;;;2.60;;
31182;SDS011;17813;0.000;0.000;2023-04-01T22:55:22;2.70;;;2.50;;
31182;SDS011;17813;0.000;0.000;2023-04-01T23:00:40;2.93;;;2.73;;
31182;SDS011;17813;0.000;0.000;2023-04-01T23:05:57;2.80;;;2.60;;
31182;SDS011;17813;0.000;0.000;2023-04-01T23:22:47;2.43;;;2.23;;
31182;SDS011;17813;0.000;0.000;2023-04-01T23:25:31;2.20;;;2.07;;
31182;SDS011;17813;0.000;0.000;2023-04-01T23:36:50;2.40;;;2.20;;
31182;SDS011;17813;0.000;0.000;2023-04-01T23:45:05;2.60;;;2.40;;
31182;SDS011;17813;0.000;0.000;2023-04-01T23:47:44;2.93;;;2.73;;
31182;SDS011;17813;0.000;0.000;2023-04-01T23:50:22;2.90;;;2.70;;
31182;SDS011;17813;0.000;0.000;2023-04-01T23:53:02;3.27;;;2.67;;
31182;SDS011;17813;0.000;0.000;2023-04-01T23:55:44;2.83;;;2.63;;
31182;SDS011;17813;0.000;0.000;2023-04-01T23:58:22;2.50;;;2.30;;
